Time;durP1;ratioP1;P1;durP2;ratioP2;P2;SDS_P1;SDS_P2;PMS_P1;PMS_P2;Temp;Humidity;BMP_temperature;BMP_pressure;BME280_temperature;BME280_humidity;BME280_pressure;Samples;Min_cycle;Max_cycle;Signal;HPM_P1;HPM_P2
2023/04/06 00:01:21;;;;;;;2.00;1.23;;;8.30;22.60;;;;;;4995861;28;20640;-69
2023/04/06 00:03:46;;;;;;;4.20;1.67;;;8.20;22.60;;;;;;5014411;28;20223;-68
2023/04/06 00:06:12;;;;;;;2.00;1.20;;;8.10;23.70;;;;;;5014348;28;20254;-69
2023/04/06 00:08:38;;;;;;;2.43;1.40;;;8.00;23.80;;;;;;5008580;28;20232;-69
2023/04/06 00:11:03;;;;;;;2.73;1.80;;;7.90;23.70;;;;;;4992118;28;20264;-69
2023/04/06 00:13:29;;;;;;;2.00;1.20;;;7.90;23.90;;;;;;5002560;28;20186;-69
2023/04/06 00:15:55;;;;;;;2.93;1.50;;;7.90;23.60;;;;;;5001700;28;20296;-69
2023/04/06 00:18:22;;;;;;;2.10;1.30;;;7.90;23.30;;;;;;4993245;28;20197;-69
2023/04/06 00:20:47;;;;;;;2.08;1.20;;;7.80;24.00;;;;;;5004667;28;20177;-68
2023/04/06 00:23:13;;;;;;;2.97;1.93;;;7.80;23.10;;;;;;5012377;28;20177;-69
2023/04/06 00:25:39;;;;;;;2.10;1.40;;;7.60;24.60;;;;;;5011399;28;20208;-69
2023/04/06 00:28:04;;;;;;;2.10;1.30;;;7.30;25.10;;;;;;5012650;28;20448;-69
2023/04/06 00:30:30;;;;;;;2.90;1.70;;;7.20;25.80;;;;;;5003349;28;20196;-69
2023/04/06 00:32:56;;;;;;;2.57;1.83;;;7.30;24.60;;;;;;4998853;28;20214;-68
2023/04/06 00:35:21;;;;;;;2.10;1.20;;;7.30;25.40;;;;;;4991916;28;20637;-67
2023/04/06 00:37:50;;;;;;;2.10;1.30;;;7.20;26.00;;;;;;4996256;28;20588;-69
2023/04/06 00:40:16;;;;;;;2.10;1.20;;;7.10;26.70;;;;;;4995334;28;20182;-67
2023/04/06 00:42:41;;;;;;;2.67;1.47;;;7.20;25.20;;;;;;4992158;28;20684;-69
2023/04/06 00:45:08;;;;;;;2.13;1.33;;;7.00;27.20;;;;;;5004369;28;20424;-69
2023/04/06 00:47:33;;;;;;;2.03;1.20;;;6.70;26.50;;;;;;5005128;28;20444;-69
2023/04/06 00:49:59;;;;;;;2.20;1.30;;;6.70;27.20;;;;;;5001972;28;20268;-69
2023/04/06 00:52:25;;;;;;;2.10;1.30;;;6.90;26.60;;;;;;5002387;28;20174;-69
2023/04/06 00:54:51;;;;;;;2.00;1.20;;;6.90;27.80;;;;;;5012175;28;20575;-69
2023/04/06 00:57:17;;;;;;;2.07;1.17;;;6.90;26.30;;;;;;5012190;28;20821;-68
2023/04/06 00:59:43;;;;;;;2.00;1.10;;;6.90;26.10;;;;;;5012311;28;20177;-69
2023/04/06 01:02:09;;;;;;;2.00;1.20;;;6.80;27.10;;;;;;5002285;28;20311;-69
2023/04/06 01:04:35;;;;;;;2.60;1.40;;;6.70;27.20;;;;;;5003720;28;20259;-69
2023/04/06 01:07:01;;;;;;;2.23;1.40;;;6.40;27.50;;;;;;5012183;28;20853;-68
2023/04/06 01:09:30;;;;;;;2.17;1.30;;;6.30;27.00;;;;;;4992778;28;20186;-68
2023/04/06 01:11:56;;;;;;;2.20;1.30;;;6.10;27.70;;;;;;4979964;28;20189;-69
2023/04/06 01:14:23;;;;;;;3.95;1.77;;;6.00;27.70;;;;;;5004221;28;20217;-69
2023/04/06 01:16:49;;;;;;;2.30;1.40;;;6.20;28.10;;;;;;5004979;28;20201;-67
2023/04/06 01:19:15;;;;;;;2.27;1.37;;;6.20;27.50;;;;;;4992221;28;20197;-65
2023/04/06 01:21:41;;;;;;;3.90;2.00;;;5.70;29.10;;;;;;4991057;28;20678;-66
2023/04/06 01:24:08;;;;;;;3.28;1.55;;;5.80;28.60;;;;;;4997641;28;20502;-66
2023/04/06 01:26:35;;;;;;;3.05;2.00;;;6.00;28.50;;;;;;5000477;28;20214;-66
2023/04/06 01:29:01;;;;;;;2.60;1.40;;;5.90;28.20;;;;;;4991348;28;20316;-65
2023/04/06 01:31:27;;;;;;;2.30;1.30;;;6.00;28.60;;;;;;5001745;28;20197;-66
2023/04/06 01:33:53;;;;;;;2.20;1.20;;;6.20;28.10;;;;;;4992545;28;20182;-65
2023/04/06 01:36:19;;;;;;;2.20;1.20;;;6.30;28.10;;;;;;4990947;28;20301;-69
2023/04/06 01:38:45;;;;;;;2.70;1.45;;;6.30;28.50;;;;;;5000297;28;20674;-67
2023/04/06 01:41:11;;;;;;;2.50;1.57;;;6.30;28.30;;;;;;4992170;28;20170;-69
2023/04/06 01:43:37;;;;;;;3.33;2.00;;;6.30;27.30;;;;;;4993258;28;20181;-65
2023/04/06 01:46:03;;;;;;;2.20;1.20;;;6.30;27.90;;;;;;5004462;28;20205;-66
2023/04/06 01:48:28;;;;;;;2.27;1.23;;;6.10;29.20;;;;;;4991023;28;20610;-65
2023/04/06 01:50:55;;;;;;;2.27;1.20;;;6.10;28.20;;;;;;4990879;28;20918;-66
2023/04/06 01:53:21;;;;;;;3.40;1.85;;;6.30;27.40;;;;;;4990346;28;20668;-67
2023/04/06 01:55:46;;;;;;;2.20;1.20;;;6.30;27.10;;;;;;4996688;28;20705;-66
2023/04/06 01:58:12;;;;;;;2.30;1.33;;;6.20;27.20;;;;;;5000289;28;20170;-67
2023/04/06 02:00:38;;;;;;;2.50;1.40;;;6.10;27.90;;;;;;4999688;28;20189;-68
2023/04/06 02:03:04;;;;;;;2.20;1.10;;;6.10;28.60;;;;;;4996763;28;20181;-68
2023/04/06 02:05:31;;;;;;;2.63;1.43;;;6.00;29.50;;;;;;4993333;28;20285;-68
2023/04/06 02:07:57;;;;;;;2.20;1.20;;;6.00;28.70;;;;;;4992026;28;20713;-68
2023/04/06 02:10:23;;;;;;;2.90;1.40;;;6.10;27.80;;;;;;4991887;28;20290;-68
2023/04/06 02:12:49;;;;;;;2.28;1.27;;;6.10;28.30;;;;;;4994823;28;20307;-68
2023/04/06 02:15:15;;;;;;;2.23;1.30;;;6.10;28.30;;;;;;5005489;28;20205;-68
2023/04/06 02:17:41;;;;;;;2.27;1.30;;;6.00;28.70;;;;;;4991294;28;20410;-68
2023/04/06 02:20:07;;;;;;;2.30;1.23;;;5.90;29.40;;;;;;4972923;28;20298;-68
2023/04/06 02:22:35;;;;;;;3.50;2.38;;;5.90;29.00;;;;;;4999409;28;20669;-66
2023/04/06 02:25:01;;;;;;;2.80;1.48;;;5.80;29.80;;;;;;5003066;28;20593;-68
2023/04/06 02:27:26;;;;;;;2.40;1.30;;;5.80;28.30;;;;;;5015621;28;20197;-67
2023/04/06 02:29:52;;;;;;;2.63;1.50;;;5.90;28.80;;;;;;5005687;28;20428;-67
2023/04/06 02:32:18;;;;;;;2.30;1.20;;;5.90;28.50;;;;;;5008750;28;20423;-68
2023/04/06 02:34:43;;;;;;;2.77;1.47;;;5.90;28.60;;;;;;5003971;28;20257;-68
2023/04/06 02:37:09;;;;;;;2.43;1.30;;;5.90;28.80;;;;;;5014811;28;20277;-68
2023/04/06 02:39:35;;;;;;;2.30;1.20;;;5.70;29.80;;;;;;5014737;28;20173;-68
2023/04/06 02:42:01;;;;;;;2.30;1.20;;;5.80;28.10;;;;;;5014931;28;20169;-68
2023/04/06 02:44:26;;;;;;;2.40;1.30;;;5.80;27.70;;;;;;5006722;28;20465;-68
2023/04/06 02:46:52;;;;;;;2.20;1.10;;;5.80;28.10;;;;;;5006410;28;20193;-68
2023/04/06 02:49:18;;;;;;;2.30;1.13;;;5.90;27.80;;;;;;5007351;28;20252;-69
2023/04/06 02:51:43;;;;;;;2.40;1.30;;;5.90;27.50;;;;;;4995127;28;20186;-68
2023/04/06 02:54:09;;;;;;;2.30;1.10;;;5.70;29.00;;;;;;4994606;28;20175;-68
2023/04/06 02:56:35;;;;;;;2.40;1.30;;;6.00;29.00;;;;;;4996136;28;20214;-68
2023/04/06 02:59:00;;;;;;;2.40;1.20;;;5.70;28.70;;;;;;5014316;28;20256;-68
2023/04/06 03:01:26;;;;;;;4.40;2.03;;;5.60;29.30;;;;;;5014454;28;20192;-69
2023/04/06 03:03:52;;;;;;;2.30;1.20;;;5.50;29.70;;;;;;5014377;28;20521;-68
2023/04/06 03:06:17;;;;;;;2.40;1.20;;;5.40;30.40;;;;;;5001939;28;20511;-68
2023/04/06 03:08:43;;;;;;;2.30;1.17;;;5.40;30.30;;;;;;5000440;28;20615;-67
2023/04/06 03:11:09;;;;;;;2.30;1.17;;;5.60;28.60;;;;;;5002403;28;20215;-68
2023/04/06 03:13:36;;;;;;;2.40;1.20;;;5.60;29.20;;;;;;5001522;28;20268;-68
2023/04/06 03:16:01;;;;;;;2.50;1.35;;;5.50;29.70;;;;;;5008487;28;20213;-68
2023/04/06 03:18:27;;;;;;;2.53;1.30;;;5.40;29.50;;;;;;5014219;28;20180;-68
2023/04/06 03:20:53;;;;;;;2.50;1.20;;;5.60;28.70;;;;;;5003705;28;20189;-68
2023/04/06 03:23:20;;;;;;;2.40;1.20;;;5.50;29.00;;;;;;5005260;28;20185;-68
2023/04/06 03:25:46;;;;;;;2.40;1.20;;;5.30;29.70;;;;;;4989495;28;20225;-69
2023/04/06 03:28:12;;;;;;;2.60;1.37;;;5.30;30.50;;;;;;4994446;28;20182;-68
2023/04/06 03:30:41;;;;;;;2.80;1.67;;;5.40;29.60;;;;;;4991010;28;20436;-67
2023/04/06 03:33:08;;;;;;;2.92;1.55;;;5.50;29.00;;;;;;4990511;28;20236;-68
2023/04/06 03:35:33;;;;;;;2.50;1.20;;;5.50;29.30;;;;;;4995084;28;20218;-68
2023/04/06 03:37:59;;;;;;;2.43;1.13;;;5.40;29.60;;;;;;5003829;28;20180;-68
2023/04/06 03:40:25;;;;;;;2.43;1.20;;;5.60;28.80;;;;;;4993644;28;20178;-68
2023/04/06 03:42:51;;;;;;;2.53;1.30;;;5.60;28.10;;;;;;5004089;28;20653;-68
2023/04/06 03:45:16;;;;;;;2.40;1.10;;;5.60;28.40;;;;;;5013473;28;20205;-68
2023/04/06 03:47:42;;;;;;;2.50;1.17;;;5.60;28.60;;;;;;5001065;28;20421;-67
2023/04/06 03:50:08;;;;;;;3.07;1.60;;;5.50;29.20;;;;;;4992936;28;20182;-68
2023/04/06 03:52:35;;;;;;;3.30;2.05;;;5.30;30.70;;;;;;5002974;28;20582;-68
2023/04/06 03:55:00;;;;;;;3.10;1.67;;;5.30;30.20;;;;;;5013594;28;20292;-67
2023/04/06 03:57:26;;;;;;;3.00;1.43;;;5.50;29.70;;;;;;5013862;28;20304;-70
2023/04/06 03:59:51;;;;;;;2.90;1.63;;;6.60;29.40;;;;;;5003533;28;20173;-68
2023/04/06 04:02:17;;;;;;;2.40;1.10;;;5.40;29.00;;;;;;5003742;28;20181;-68
2023/04/06 04:04:43;;;;;;;3.20;1.97;;;5.40;29.10;;;;;;4995535;28;20536;-68
2023/04/06 04:07:08;;;;;;;2.50;1.10;;;5.50;28.60;;;;;;4994050;28;20201;-68
2023/04/06 04:09:34;;;;;;;3.00;1.63;;;5.50;28.50;;;;;;4994211;28;20209;-68
2023/04/06 04:11:59;;;;;;;4.07;1.70;;;5.30;29.70;;;;;;4992889;28;20182;-68
2023/04/06 04:14:25;;;;;;;2.60;1.30;;;5.20;29.50;;;;;;4991462;28;20210;-68
2023/04/06 04:16:51;;;;;;;3.63;1.37;;;5.00;30.40;;;;;;5002910;28;20198;-67
2023/04/06 04:19:16;;;;;;;2.80;1.30;;;5.00;30.20;;;;;;5004734;28;20173;-68
2023/04/06 04:21:46;;;;;;;2.60;1.10;;;4.90;31.00;;;;;;4993161;28;20189;-68
2023/04/06 04:24:12;;;;;;;2.63;1.25;;;5.10;30.50;;;;;;4991668;28;20174;-68
2023/04/06 04:26:39;;;;;;;2.60;1.10;;;4.90;31.20;;;;;;4992002;28;20686;-68
2023/04/06 04:29:05;;;;;;;3.20;1.50;;;4.90;31.50;;;;;;4990845;28;20190;-68
2023/04/06 04:31:31;;;;;;;2.60;1.20;;;4.90;30.70;;;;;;5006957;28;20533;-68
2023/04/06 04:33:57;;;;;;;2.67;1.27;;;4.80;31.80;;;;;;4991948;28;20192;-68
2023/04/06 04:36:24;;;;;;;2.88;1.45;;;4.80;31.30;;;;;;4992123;28;20197;-68
2023/04/06 04:38:50;;;;;;;2.80;1.58;;;4.60;31.70;;;;;;4997178;28;20190;-68
2023/04/06 04:41:15;;;;;;;2.63;1.23;;;4.60;32.40;;;;;;4996320;28;20263;-68
2023/04/06 04:43:41;;;;;;;6.10;1.80;;;4.70;32.10;;;;;;4992630;28;20405;-68
2023/04/06 04:46:07;;;;;;;4.10;2.13;;;4.70;31.90;;;;;;4991560;28;20267;-68
2023/04/06 04:48:32;;;;;;;3.20;1.77;;;4.80;31.90;;;;;;5001611;28;20190;-68
2023/04/06 04:50:58;;;;;;;2.90;1.40;;;4.80;31.60;;;;;;5003201;28;20181;-68
2023/04/06 04:53:24;;;;;;;2.80;1.30;;;5.00;31.90;;;;;;5011645;28;20174;-66
2023/04/06 04:55:49;;;;;;;2.80;1.30;;;4.90;31.10;;;;;;5010354;28;20255;-68
2023/04/06 04:58:16;;;;;;;2.70;1.20;;;4.80;31.70;;;;;;5011839;28;20432;-68
2023/04/06 05:00:43;;;;;;;2.70;1.20;;;4.80;31.60;;;;;;4997162;28;20181;-68
2023/04/06 05:03:10;;;;;;;3.15;1.60;;;4.80;31.60;;;;;;5003457;28;20268;-67
2023/04/06 05:05:36;;;;;;;2.67;1.10;;;4.90;31.80;;;;;;5003983;28;20669;-66
2023/04/06 05:08:01;;;;;;;2.70;1.20;;;5.10;30.50;;;;;;4997960;28;20236;-67
2023/04/06 05:10:27;;;;;;;2.77;1.30;;;5.20;29.50;;;;;;4994455;28;20190;-67
2023/04/06 05:12:53;;;;;;;2.70;1.27;;;5.50;29.90;;;;;;4998365;28;20573;-67
2023/04/06 05:15:19;;;;;;;2.80;1.27;;;5.80;29.50;;;;;;4992347;28;20252;-67
2023/04/06 05:17:45;;;;;;;2.80;1.33;;;5.50;29.10;;;;;;4992297;28;20261;-67
2023/04/06 05:20:10;;;;;;;2.80;1.30;;;5.50;29.70;;;;;;4990198;28;20313;-68
2023/04/06 05:22:36;;;;;;;2.77;1.30;;;5.30;29.60;;;;;;5002812;28;20185;-67
2023/04/06 05:25:03;;;;;;;3.00;1.43;;;5.20;30.70;;;;;;4996993;28;20610;-67
2023/04/06 05:27:28;;;;;;;2.60;1.10;;;5.10;31.50;;;;;;4992871;28;20739;-67
2023/04/06 05:29:54;;;;;;;2.57;1.10;;;5.10;32.10;;;;;;5006496;28;20197;-67
2023/04/06 05:32:21;;;;;;;3.00;1.30;;;5.40;30.10;;;;;;4999749;28;20440;-68
2023/04/06 05:34:49;;;;;;;3.35;1.92;;;5.40;29.70;;;;;;4994284;28;20201;-67
2023/04/06 05:37:15;;;;;;;2.90;1.40;;;5.60;30.50;;;;;;5000935;28;20201;-67
2023/04/06 05:39:41;;;;;;;8.18;2.95;;;5.50;31.30;;;;;;4984833;28;20209;-67
2023/04/06 05:42:07;;;;;;;3.00;1.70;;;5.50;31.40;;;;;;5026109;22;20355;-72
2023/04/06 05:44:32;;;;;;;2.90;1.20;;;5.80;29.80;;;;;;4986398;28;20182;-72
2023/04/06 05:46:58;;;;;;;2.70;1.30;;;5.90;29.90;;;;;;4991670;28;20178;-72
2023/04/06 05:49:24;;;;;;;3.40;1.60;;;5.90;29.90;;;;;;4991089;28;20211;-72
2023/04/06 05:51:49;;;;;;;2.80;1.27;;;5.80;30.00;;;;;;4999334;28;20174;-72
2023/04/06 05:54:15;;;;;;;2.73;1.17;;;5.80;30.90;;;;;;5007645;28;20177;-71
2023/04/06 05:56:41;;;;;;;2.90;1.20;;;5.80;29.60;;;;;;5012438;28;20708;-72
2023/04/06 05:59:06;;;;;;;2.80;1.20;;;5.80;28.70;;;;;;4999924;28;20182;-72
2023/04/06 06:01:33;;;;;;;2.80;1.20;;;5.80;29.10;;;;;;5004690;28;20652;-72
2023/04/06 06:04:00;;;;;;;6.32;1.85;;;5.90;29.00;;;;;;5014585;28;20189;-73
2023/04/06 06:06:27;;;;;;;2.72;1.20;;;6.10;28.10;;;;;;5015295;28;20244;-72
2023/04/06 06:08:53;;;;;;;2.80;1.20;;;6.20;28.30;;;;;;5014768;28;20169;-72
2023/04/06 06:11:19;;;;;;;3.30;1.60;;;6.50;27.80;;;;;;5005665;28;20256;-73
2023/04/06 06:13:44;;;;;;;4.40;1.70;;;6.50;27.70;;;;;;5006403;28;20189;-72
2023/04/06 06:16:10;;;;;;;2.80;1.30;;;6.80;26.80;;;;;;5003516;28;20208;-72
2023/04/06 06:18:36;;;;;;;3.33;1.67;;;6.80;26.50;;;;;;4995668;28;20212;-72
2023/04/06 06:21:02;;;;;;;3.22;1.50;;;6.90;27.00;;;;;;4994125;28;20170;-72
2023/04/06 06:23:28;;;;;;;3.10;1.30;;;6.90;27.20;;;;;;5001596;28;20212;-71
2023/04/06 06:25:53;;;;;;;3.30;1.43;;;7.00;27.00;;;;;;5001476;28;20432;-72
2023/04/06 06:28:19;;;;;;;3.30;1.97;;;7.10;26.30;;;;;;5002769;28;20209;-72
2023/04/06 06:30:45;;;;;;;2.80;1.20;;;7.20;26.20;;;;;;5006181;28;20193;-72
2023/04/06 06:33:10;;;;;;;3.40;1.83;;;7.20;26.40;;;;;;4999948;28;20204;-72
2023/04/06 06:35:36;;;;;;;3.10;1.73;;;7.40;26.60;;;;;;4998572;28;20249;-73
2023/04/06 06:38:02;;;;;;;3.10;1.80;;;7.60;24.30;;;;;;4992731;28;20218;-76
2023/04/06 06:40:28;;;;;;;2.70;1.23;;;8.00;23.10;;;;;;4990826;28;20182;-77
2023/04/06 06:42:53;;;;;;;2.70;1.30;;;8.00;23.10;;;;;;4992336;28;20218;-76
2023/04/06 06:45:20;;;;;;;2.93;1.50;;;8.00;23.20;;;;;;4992778;28;20244;-76
2023/04/06 06:47:46;;;;;;;2.40;1.10;;;7.00;24.50;;;;;;4992687;28;20232;-73
2023/04/06 06:50:11;;;;;;;2.70;1.42;;;6.40;25.60;;;;;;4994429;28;20664;-73
2023/04/06 06:52:37;;;;;;;2.70;1.50;;;6.80;25.90;;;;;;4993949;28;20238;-73
2023/04/06 06:55:03;;;;;;;2.40;1.10;;;7.10;26.30;;;;;;4998126;28;20291;-72
2023/04/06 06:57:29;;;;;;;2.40;1.30;;;6.80;25.50;;;;;;5000906;28;20221;-73
2023/04/06 06:59:54;;;;;;;2.80;1.50;;;7.00;26.50;;;;;;4993921;28;20437;-73
2023/04/06 07:02:20;;;;;;;2.40;1.30;;;7.40;26.40;;;;;;4993024;28;20636;-72
2023/04/06 07:04:49;;;;;;;2.20;1.10;;;7.50;24.90;;;;;;4997584;28;20181;-73
2023/04/06 07:07:15;;;;;;;2.33;1.30;;;7.60;24.60;;;;;;5002704;28;21826;-73
2023/04/06 07:09:40;;;;;;;4.30;2.13;;;7.40;25.50;;;;;;4991643;28;20272;-72
2023/04/06 07:12:06;;;;;;;3.80;2.53;;;7.40;24.60;;;;;;4994372;28;20229;-73
2023/04/06 07:14:32;;;;;;;2.77;1.87;;;7.60;25.10;;;;;;4989738;28;20185;-73
2023/04/06 07:16:57;;;;;;;2.30;1.20;;;7.30;25.30;;;;;;4991094;28;20174;-73
2023/04/06 07:19:23;;;;;;;2.53;1.63;;;7.50;25.70;;;;;;4991857;28;20617;-73
2023/04/06 07:21:49;;;;;;;2.63;1.50;;;7.20;25.40;;;;;;4991759;28;20182;-73
2023/04/06 07:24:15;;;;;;;2.65;1.70;;;7.70;25.20;;;;;;4993060;28;20212;-72
2023/04/06 07:26:42;;;;;;;2.58;1.38;;;7.40;25.60;;;;;;4993412;28;20210;-72
2023/04/06 07:29:07;;;;;;;2.30;1.42;;;7.60;25.10;;;;;;4993266;28;20185;-73
2023/04/06 07:31:35;;;;;;;3.17;1.53;;;8.00;24.30;;;;;;4991536;28;20549;-72
2023/04/06 07:34:01;;;;;;;4.88;2.95;;;8.00;24.20;;;;;;4993286;28;20280;-72
2023/04/06 07:36:26;;;;;;;2.60;1.70;;;8.10;24.20;;;;;;4993641;28;20645;-72
2023/04/06 07:38:52;;;;;;;2.00;1.20;;;7.80;24.50;;;;;;4993497;28;20170;-71
2023/04/06 07:41:18;;;;;;;2.20;1.40;;;7.70;24.90;;;;;;4984310;28;20700;-72
2023/04/06 07:43:43;;;;;;;2.33;1.57;;;8.20;24.40;;;;;;4992967;28;20332;-72
2023/04/06 07:46:09;;;;;;;2.53;1.53;;;8.40;24.30;;;;;;4993329;28;20202;-72
2023/04/06 07:48:37;;;;;;;2.10;1.33;;;9.00;23.20;;;;;;4993173;28;20649;-72
2023/04/06 07:51:04;;;;;;;2.00;1.20;;;9.50;21.80;;;;;;4990621;28;20190;-71
2023/04/06 07:53:30;;;;;;;2.00;1.33;;;9.40;22.50;;;;;;4992900;28;20271;-72
2023/04/06 07:55:58;;;;;;;2.17;1.40;;;9.00;22.70;;;;;;4993219;28;20237;-73
2023/04/06 07:58:23;;;;;;;4.03;2.25;;;8.90;22.60;;;;;;4993236;28;20940;-72
2023/04/06 08:00:49;;;;;;;3.90;2.43;;;9.00;22.40;;;;;;4991968;28;20267;-72
2023/04/06 08:03:16;;;;;;;2.10;1.40;;;8.70;22.70;;;;;;4992410;28;20222;-72
2023/04/06 08:05:42;;;;;;;1.95;1.27;;;8.70;23.20;;;;;;4985524;28;20185;-73
2023/04/06 08:08:09;;;;;;;2.25;1.55;;;8.70;23.00;;;;;;4989924;28;20217;-72
2023/04/06 08:10:35;;;;;;;6.53;2.90;;;8.40;23.60;;;;;;5000909;28;20188;-72
2023/04/06 08:13:00;;;;;;;1.90;1.20;;;8.70;23.30;;;;;;4990412;28;20277;-73
2023/04/06 08:15:26;;;;;;;2.33;1.70;;;8.70;23.30;;;;;;5008762;28;20468;-72
2023/04/06 08:17:52;;;;;;;1.90;1.13;;;8.30;24.00;;;;;;4993249;28;20207;-72
2023/04/06 08:20:17;;;;;;;3.07;1.70;;;8.50;24.30;;;;;;4992246;28;20168;-72
2023/04/06 08:22:43;;;;;;;2.10;1.47;;;9.40;23.40;;;;;;4991232;28;20199;-71
2023/04/06 08:25:09;;;;;;;2.20;1.50;;;9.20;22.50;;;;;;4992059;28;20190;-72
2023/04/06 08:27:34;;;;;;;4.13;2.97;;;9.00;22.80;;;;;;4993021;28;20187;-73
2023/04/06 08:30:01;;;;;;;2.00;1.30;;;9.60;22.20;;;;;;4993024;28;20174;-72
2023/04/06 08:32:27;;;;;;;2.35;1.67;;;9.90;21.40;;;;;;4992889;28;20197;-73
2023/04/06 08:34:55;;;;;;;2.20;1.50;;;10.50;20.40;;;;;;4989873;28;20590;-73
2023/04/06 08:37:21;;;;;;;10.40;1.95;;;10.70;20.20;;;;;;4991230;28;20192;-72
2023/04/06 08:39:47;;;;;;;2.00;1.20;;;9.80;21.40;;;;;;4992548;28;20177;-71
2023/04/06 08:42:19;;;;;;;2.10;1.50;;;9.80;20.70;;;;;;4992405;28;20208;-73
2023/04/06 08:44:45;;;;;;;3.05;2.42;;;10.00;20.50;;;;;;4992527;28;20707;-73
2023/04/06 08:47:12;;;;;;;2.40;1.80;;;10.70;19.80;;;;;;4990116;28;20200;-73
2023/04/06 08:49:38;;;;;;;2.20;1.40;;;11.30;19.10;;;;;;4992318;28;20460;-73
2023/04/06 08:52:10;;;;;;;2.23;1.50;;;11.30;18.00;;;;;;4992603;28;20540;-72
2023/04/06 08:54:36;;;;;;;1.90;1.20;;;10.50;18.90;;;;;;4992184;28;20397;-73
2023/04/06 08:57:02;;;;;;;5.60;2.63;;;9.90;19.70;;;;;;4990895;28;20252;-72
2023/04/06 08:59:28;;;;;;;3.03;2.03;;;10.00;19.50;;;;;;4991530;28;20182;-72
2023/04/06 09:01:55;;;;;;;2.80;2.03;;;10.60;19.20;;;;;;4991771;28;20320;-72
2023/04/06 09:04:21;;;;;;;2.60;1.73;;;11.00;18.10;;;;;;4991829;28;20419;-73
2023/04/06 09:06:47;;;;;;;2.10;1.40;;;11.00;18.30;;;;;;4993754;28;20181;-72
2023/04/06 09:09:13;;;;;;;2.70;1.57;;;11.20;18.20;;;;;;4991187;28;20499;-72
2023/04/06 09:11:46;;;;;;;1.90;1.20;;;11.40;18.20;;;;;;4994101;28;20213;-74
2023/04/06 09:14:12;;;;;;;4.20;1.70;;;11.50;17.10;;;;;;4995469;28;20185;-73
2023/04/06 09:16:45;;;;;;;2.50;1.60;;;11.70;17.10;;;;;;5000749;28;20479;-73
2023/04/06 09:19:12;;;;;;;1.90;1.20;;;12.40;16.90;;;;;;4992770;28;20285;-69
2023/04/06 09:21:41;;;;;;;4.03;1.97;;;12.60;16.60;;;;;;4995705;28;20424;-73
2023/04/06 09:24:08;;;;;;;3.17;1.90;;;12.90;16.90;;;;;;4988984;28;20489;-74
2023/04/06 09:26:46;;;;;;;9.53;2.13;;;13.30;16.40;;;;;;5004536;28;20413;-73
2023/04/06 09:29:22;;;;;;;2.20;1.50;;;13.60;15.40;;;;;;5000605;28;20509;-72
2023/04/06 09:31:48;;;;;;;2.27;1.37;;;13.70;15.50;;;;;;4977046;28;20439;-73
2023/04/06 09:34:22;;;;;;;2.30;1.70;;;13.20;13.00;;;;;;4993682;28;20916;-72
2023/04/06 09:36:47;;;;;;;3.20;1.73;;;12.50;13.80;;;;;;4994374;28;20251;-70
2023/04/06 09:39:13;;;;;;;2.10;1.30;;;12.80;13.40;;;;;;4999714;28;20440;-70
2023/04/06 09:41:39;;;;;;;2.47;1.70;;;13.20;12.80;;;;;;4988651;28;20777;-70
2023/04/06 09:44:12;;;;;;;2.00;1.30;;;13.60;13.00;;;;;;5001776;28;20244;-71
2023/04/06 09:46:47;;;;;;;3.20;2.20;;;13.60;13.50;;;;;;5004456;28;20475;-70
2023/04/06 09:49:14;;;;;;;2.33;1.60;;;13.90;12.80;;;;;;4999866;28;20506;-70
2023/04/06 09:51:48;;;;;;;2.20;1.47;;;13.60;12.70;;;;;;4993864;28;20439;-70
2023/04/06 09:54:22;;;;;;;2.47;1.57;;;13.60;12.10;;;;;;4998228;28;20442;-70
2023/04/06 09:57:03;;;;;;;4.17;1.83;;;13.90;11.40;;;;;;5002533;28;20824;-73
2023/04/06 09:59:46;;;;;;;2.60;2.00;;;13.90;11.80;;;;;;4996002;28;20789;-73
2023/04/06 10:02:25;;;;;;;2.40;1.60;;;14.40;11.30;;;;;;4994312;28;20499;-73
2023/04/06 10:04:58;;;;;;;3.27;2.17;;;14.30;12.00;;;;;;4990664;28;20439;-72
2023/04/06 10:07:25;;;;;;;2.40;1.70;;;14.30;11.90;;;;;;4990975;28;20449;-70
2023/04/06 10:09:54;;;;;;;2.50;1.70;;;14.30;11.50;;;;;;4995540;28;20402;-71
2023/04/06 10:12:20;;;;;;;2.90;1.73;;;14.10;11.50;;;;;;4993434;28;21959;-71
2023/04/06 10:14:45;;;;;;;4.93;1.90;;;14.10;12.10;;;;;;4993749;28;20435;-71
2023/04/06 10:17:11;;;;;;;2.10;1.67;;;14.10;13.90;;;;;;4995165;28;20424;-70
2023/04/06 10:19:49;;;;;;;2.10;1.40;;;14.70;13.20;;;;;;4995835;28;20172;-71
2023/04/06 10:22:24;;;;;;;2.10;1.30;;;15.40;13.50;;;;;;4994176;28;20204;-69
2023/04/06 10:24:49;;;;;;;2.23;1.50;;;13.60;12.90;;;;;;4975588;28;20885;-71
2023/04/06 10:27:15;;;;;;;2.40;1.60;;;13.90;13.10;;;;;;4975539;28;20413;-71
2023/04/06 10:29:47;;;;;;;2.40;1.57;;;14.50;11.90;;;;;;4975888;28;20180;-71
2023/04/06 10:32:13;;;;;;;3.13;2.23;;;14.20;11.50;;;;;;4987722;28;20695;-71
2023/04/06 10:34:38;;;;;;;2.20;1.60;;;14.10;11.30;;;;;;4993267;28;20439;-71
2023/04/06 10:37:14;;;;;;;2.30;1.70;;;14.30;11.90;;;;;;4994892;28;20186;-72
2023/04/06 10:39:58;;;;;;;2.10;1.50;;;15.10;11.50;;;;;;4994895;28;20173;-72
2023/04/06 10:42:38;;;;;;;2.10;1.50;;;15.40;13.90;;;;;;4994519;28;20448;-71
2023/04/06 10:45:07;;;;;;;3.00;2.30;;;15.70;10.20;;;;;;4992726;28;20440;-71
2023/04/06 10:47:40;;;;;;;2.30;1.60;;;15.70;12.30;;;;;;4994459;28;20500;-71
2023/04/06 10:50:06;;;;;;;2.10;1.40;;;16.50;9.70;;;;;;4993957;28;22158;-71
2023/04/06 10:52:32;;;;;;;2.10;1.30;;;17.10;13.00;;;;;;4994228;28;20805;-72
2023/04/06 10:54:58;;;;;;;2.40;1.50;;;16.80;10.00;;;;;;4994664;28;20463;-71
2023/04/06 10:57:31;;;;;;;2.20;1.43;;;16.40;10.80;;;;;;4994338;28;20648;-72
2023/04/06 10:59:57;;;;;;;2.17;1.30;;;16.50;9.70;;;;;;4994637;28;20974;-74
2023/04/06 11:02:23;;;;;;;3.77;1.53;;;16.60;9.60;;;;;;4991348;28;20460;-72
2023/04/06 11:04:59;;;;;;;3.23;1.73;;;16.10;9.50;;;;;;5002649;28;20195;-72
2023/04/06 11:07:26;;;;;;;2.90;1.50;;;16.70;8.50;;;;;;5000671;28;20219;-72
2023/04/06 11:09:53;;;;;;;4.20;2.00;;;17.80;7.00;;;;;;4995986;28;20442;-72
2023/04/06 11:12:26;;;;;;;3.67;1.80;;;19.10;6.20;;;;;;4998953;28;20464;-72
2023/04/06 11:15:05;;;;;;;3.27;1.70;;;20.30;6.00;;;;;;4995889;28;20442;-71
2023/04/06 11:17:36;;;;;;;4.00;2.10;;;19.60;7.20;;;;;;5002922;28;21026;-72
2023/04/06 11:20:03;;;;;;;3.77;1.73;;;19.50;9.90;;;;;;5001131;28;20966;-71
2023/04/06 11:22:30;;;;;;;3.50;1.63;;;20.70;7.80;;;;;;4994535;28;20532;-73
2023/04/06 11:25:08;;;;;;;3.80;1.60;;;21.10;7.60;;;;;;4990248;28;20435;-73
2023/04/06 11:27:35;;;;;;;4.50;2.00;;;22.90;6.90;;;;;;4996215;28;20446;-73
2023/04/06 11:30:02;;;;;;;3.70;1.63;;;22.60;5.10;;;;;;5004200;28;20436;-72
2023/04/06 11:32:28;;;;;;;4.57;2.20;;;22.10;6.00;;;;;;4993196;28;20496;-72
2023/04/06 11:34:54;;;;;;;5.70;1.70;;;22.00;4.90;;;;;;4993629;28;20961;-72
2023/04/06 11:37:20;;;;;;;3.60;1.40;;;23.10;4.70;;;;;;4997726;28;20425;-73
2023/04/06 11:39:54;;;;;;;4.70;2.00;;;24.20;4.40;;;;;;4997732;28;20544;-71
2023/04/06 11:42:25;;;;;;;4.37;1.83;;;23.20;3.60;;;;;;5002973;28;20215;-72
2023/04/06 11:44:53;;;;;;;4.20;1.53;;;22.10;4.60;;;;;;4993542;28;20458;-72
2023/04/06 11:47:20;;;;;;;4.07;1.40;;;23.70;3.30;;;;;;4997109;28;20428;-71
2023/04/06 11:49:45;;;;;;;4.67;1.97;;;21.10;4.10;;;;;;4994385;28;20514;-72
2023/04/06 11:52:30;;;;;;;5.20;1.53;;;20.10;4.30;;;;;;5002242;28;20538;-71
2023/04/06 11:54:57;;;;;;;5.33;1.73;;;19.90;5.00;;;;;;4995261;28;20182;-72
2023/04/06 11:57:25;;;;;;;4.30;1.53;;;18.40;4.80;;;;;;4991809;28;20788;-73
2023/04/06 11:59:51;;;;;;;6.50;1.63;;;19.20;4.20;;;;;;5003162;28;20546;-73
2023/04/06 12:02:18;;;;;;;27.30;2.03;;;21.20;6.00;;;;;;4992368;28;20464;-72
2023/04/06 12:04:44;;;;;;;4.40;1.60;;;21.30;4.00;;;;;;4996592;28;20432;-73
2023/04/06 12:07:10;;;;;;;4.23;1.33;;;22.40;4.10;;;;;;5003810;28;20455;-72
2023/04/06 12:09:36;;;;;;;4.80;1.90;;;22.50;3.40;;;;;;4990907;28;20434;-72
2023/04/06 12:12:02;;;;;;;4.67;1.70;;;20.70;3.90;;;;;;4997693;28;20424;-72
2023/04/06 12:14:30;;;;;;;4.47;1.47;;;19.60;5.90;;;;;;5004265;28;20463;-73
2023/04/06 12:16:57;;;;;;;5.00;1.77;;;20.10;5.20;;;;;;4999570;28;20495;-73
2023/04/06 12:19:25;;;;;;;4.60;1.53;;;21.10;4.50;;;;;;4997941;28;20429;-72
2023/04/06 12:21:54;;;;;;;5.40;2.00;;;22.30;3.80;;;;;;4992725;28;21044;-73
2023/04/06 12:24:20;;;;;;;5.80;2.27;;;22.40;3.20;;;;;;4998972;28;20436;-72
2023/04/06 12:26:46;;;;;;;5.17;2.03;;;23.50;5.30;;;;;;4991121;28;20435;-74
2023/04/06 12:29:13;;;;;;;6.83;2.30;;;23.30;4.40;;;;;;4996467;28;20598;-71
2023/04/06 12:31:40;;;;;;;5.00;1.77;;;23.30;2.70;;;;;;5002896;28;20545;-72
2023/04/06 12:34:07;;;;;;;14.90;1.60;;;21.90;3.40;;;;;;4995293;28;20459;-73
2023/04/06 12:36:32;;;;;;;5.77;1.67;;;22.10;3.40;;;;;;4992699;28;20967;-72
2023/04/06 12:38:58;;;;;;;5.40;1.60;;;22.10;4.10;;;;;;4991948;28;20432;-73
2023/04/06 12:41:24;;;;;;;6.23;1.90;;;22.70;2.00;;;;;;4992251;28;20938;-72
2023/04/06 12:43:50;;;;;;;4.60;1.47;;;22.20;2.70;;;;;;4986550;28;20283;-73
2023/04/06 12:46:16;;;;;;;4.83;1.67;;;22.80;3.00;;;;;;4987859;28;20742;-74
2023/04/06 12:48:42;;;;;;;5.20;1.87;;;22.70;3.70;;;;;;4992512;28;20188;-72
2023/04/06 12:51:08;;;;;;;4.70;1.60;;;22.20;3.70;;;;;;4995710;28;20810;-73
2023/04/06 12:53:35;;;;;;;4.60;1.50;;;21.50;5.20;;;;;;4990655;28;20201;-73